createdAt,value
2022-12-19T04:45:44.683Z,508.05
2022-12-19T04:48:11.964Z,503.93
2022-12-19T04:50:38.593Z,515.83
2022-12-19T04:53:06.379Z,516.97
2022-12-19T04:55:33.104Z,516.58
2022-12-19T04:57:59.704Z,514.25
2022-12-19T05:02:52.193Z,515.30
2022-12-19T05:05:19.150Z,514.70
2022-12-19T05:07:47.025Z,530.20
2022-12-19T05:10:14.517Z,535.30
2022-12-19T05:12:41.188Z,531.95
2022-12-19T05:15:08.526Z,545.90
2022-12-19T05:17:35.301Z,544.80
2022-12-19T05:22:28.768Z,527.40
2022-12-19T05:24:55.406Z,522.90
2022-12-19T05:27:22.259Z,524.55
2022-12-19T05:29:48.928Z,542.53
2022-12-19T05:32:15.603Z,534.40
2022-12-19T05:34:42.224Z,542.73
2022-12-19T05:37:08.877Z,543.80
2022-12-19T05:39:35.486Z,534.97
2022-12-19T05:42:02.122Z,544.30
2022-12-19T05:46:55.371Z,550.10
2022-12-19T05:51:49.056Z,565.65
2022-12-19T05:54:16.049Z,540.85
2022-12-19T05:56:42.782Z,540.65
2022-12-19T05:59:09.509Z,538.70
2022-12-19T06:01:36.260Z,545.35
2022-12-19T06:04:04.235Z,547.20
2022-12-19T06:06:30.920Z,546.77
2022-12-19T06:08:58.935Z,558.00
2022-12-19T06:11:26.597Z,538.03
2022-12-19T06:13:53.990Z,553.90
2022-12-19T06:16:22.242Z,540.53
2022-12-19T06:18:49.306Z,554.50
2022-12-19T06:21:21.518Z,543.95
2022-12-19T06:23:48.819Z,542.50
2022-12-19T06:26:19.959Z,559.60
2022-12-19T06:28:48.578Z,562.20
2022-12-19T06:31:15.992Z,539.60
2022-12-19T06:36:20.515Z,562.10
2022-12-19T06:38:48.219Z,558.40
2022-12-19T06:41:34.609Z,551.70
2022-12-19T06:44:02.957Z,540.47
2022-12-19T06:46:30.340Z,542.67
2022-12-19T06:51:23.855Z,566.90
2022-12-19T06:53:50.722Z,541.50
2022-12-19T06:56:18.335Z,549.17
2022-12-19T06:58:45.043Z,552.55
2022-12-19T07:01:22.191Z,545.15
2022-12-19T07:03:49.834Z,550.00
2022-12-19T07:06:16.807Z,555.40
2022-12-19T07:08:43.489Z,555.80
2022-12-19T07:11:10.159Z,529.67
2022-12-19T07:13:36.850Z,527.10
2022-12-19T07:16:05.193Z,539.70
2022-12-19T07:18:36.881Z,536.63
2022-12-19T07:21:06.388Z,545.43
2022-12-19T07:23:34.391Z,546.70
2022-12-19T07:26:01.212Z,535.05
2022-12-19T07:28:27.872Z,547.80
2022-12-19T07:30:54.562Z,554.53
2022-12-19T07:33:22.151Z,544.23
2022-12-19T07:38:15.651Z,545.75
2022-12-19T07:40:42.319Z,546.30
2022-12-19T07:43:09.261Z,551.60
2022-12-19T07:45:38.222Z,545.00
2022-12-19T07:48:06.646Z,561.60
2022-12-19T07:50:33.857Z,556.65
2022-12-19T07:53:00.648Z,559.85
2022-12-19T07:55:27.350Z,577.00
2022-12-19T07:57:55.343Z,571.70
2022-12-19T08:00:22.639Z,534.55
2022-12-19T08:02:49.558Z,556.92
2022-12-19T08:05:16.608Z,556.80
2022-12-19T08:07:43.337Z,552.05
2022-12-19T08:10:12.375Z,537.50
2022-12-19T08:12:39.382Z,550.60
2022-12-19T08:15:06.510Z,549.80
2022-12-19T08:17:34.626Z,557.05
2022-12-19T08:20:01.550Z,553.10
2022-12-19T08:22:30.221Z,563.30
2022-12-19T08:24:57.681Z,553.70
2022-12-19T08:27:24.651Z,558.90
2022-12-19T08:29:51.670Z,562.30
2022-12-19T08:32:21.309Z,559.00
2022-12-19T08:34:49.648Z,560.30
2022-12-19T08:37:16.360Z,555.05
2022-12-19T08:39:43.013Z,559.85
2022-12-19T08:42:09.717Z,567.25
2022-12-19T08:44:36.405Z,572.30
2022-12-19T08:47:03.112Z,581.00
2022-12-19T08:49:29.799Z,579.03
2022-12-19T08:51:56.596Z,588.03
2022-12-19T08:54:23.365Z,596.10
2022-12-19T08:56:50.060Z,586.27
2022-12-19T08:59:22.200Z,591.67
2022-12-19T09:01:57.542Z,599.47
2022-12-19T09:05:57.423Z,620.30
2022-12-19T09:07:11.181Z,616.08
2022-12-19T09:09:42.193Z,636.42
2022-12-19T09:12:08.911Z,666.10
2022-12-19T09:14:36.234Z,700.17
2022-12-19T09:17:04.556Z,711.30
2022-12-19T09:19:32.074Z,744.60
2022-12-19T09:21:59.015Z,755.22
2022-12-19T09:24:26.141Z,794.70
2022-12-19T09:26:53.004Z,802.58
2022-12-19T09:29:21.823Z,811.03
2022-12-19T09:31:55.659Z,804.85
2022-12-19T09:34:36.827Z,811.40
2022-12-19T09:37:17.218Z,825.88
2022-12-19T09:39:45.638Z,815.00
2022-12-19T09:42:43.200Z,822.33
2022-12-19T09:45:32.394Z,821.38
2022-12-19T09:48:00.823Z,819.33
2022-12-19T09:50:45.258Z,819.72
2022-12-19T09:53:22.401Z,835.80
2022-12-19T09:55:52.530Z,837.33
2022-12-19T09:58:41.047Z,854.95
2022-12-19T10:01:17.565Z,833.90
2022-12-19T10:03:50.361Z,817.13
2022-12-19T10:06:33.909Z,833.65
2022-12-19T10:10:37.570Z,831.20
2022-12-19T10:12:44.384Z,824.92
2022-12-19T10:15:29.492Z,806.33
2022-12-19T10:18:32.522Z,808.78
2022-12-19T10:21:18.052Z,811.00
2022-12-19T10:23:45.112Z,812.90
2022-12-19T10:26:19.352Z,799.83
2022-12-19T10:28:48.946Z,803.03
2022-12-19T10:31:29.109Z,782.47
2022-12-19T10:34:21.270Z,787.92
2022-12-19T10:39:59.459Z,771.13
2022-12-19T10:42:44.600Z,778.33
2022-12-19T10:45:21.247Z,754.22
2022-12-19T10:47:51.514Z,737.95
2022-12-19T10:50:22.454Z,745.42
2022-12-19T10:53:10.451Z,732.72
2022-12-19T10:55:47.310Z,745.63
2022-12-19T10:58:33.874Z,757.53
2022-12-19T11:01:17.517Z,759.05
2022-12-19T11:03:49.808Z,779.97
2022-12-19T11:06:35.043Z,794.45
2022-12-19T11:09:17.958Z,830.75
2022-12-19T11:14:23.329Z,839.38
2022-12-19T11:17:43.440Z,813.53
2022-12-19T11:23:10.567Z,827.33
2022-12-19T11:29:40.000Z,821.35
2022-12-19T11:29:40.133Z,813.03
2022-12-19T11:29:46.779Z,840.75
2022-12-19T11:30:36.948Z,801.80
2022-12-19T11:34:29.915Z,820.22
2022-12-19T11:37:09.650Z,826.25
2022-12-19T11:39:51.395Z,814.83
2022-12-19T11:42:31.420Z,818.75
2022-12-19T11:45:26.462Z,810.03
2022-12-19T11:48:08.842Z,795.90
2022-12-19T11:50:43.469Z,797.67
2022-12-19T11:53:33.407Z,794.08
2022-12-19T11:56:03.925Z,786.28
2022-12-19T11:58:30.662Z,781.25
2022-12-19T12:01:26.237Z,777.38
2022-12-19T12:04:13.500Z,768.25
2022-12-19T12:06:54.205Z,767.75
2022-12-19T12:12:55.901Z,764.25
2022-12-19T12:22:48.195Z,739.28
2022-12-19T12:28:12.472Z,752.63
2022-12-19T12:31:21.282Z,744.83
2022-12-19T12:31:27.852Z,761.97
2022-12-19T12:31:53.740Z,740.33
2022-12-19T12:35:08.004Z,750.58
2022-12-19T12:35:08.172Z,759.22
2022-12-19T12:35:46.220Z,753.45
2022-12-19T12:39:58.015Z,748.40
2022-12-19T12:42:42.708Z,729.22
2022-12-19T12:45:35.617Z,749.65
2022-12-19T12:48:02.416Z,746.60
2022-12-19T12:50:30.120Z,752.50
2022-12-19T12:53:06.434Z,756.30
2022-12-19T12:55:40.031Z,752.00
2022-12-19T12:58:27.090Z,752.55
2022-12-19T13:01:10.361Z,755.80
2022-12-19T13:03:37.414Z,756.53
2022-12-19T13:06:21.177Z,762.88
2022-12-19T13:08:49.406Z,754.77
2022-12-19T13:11:53.911Z,770.92
2022-12-19T13:14:35.975Z,762.60
2022-12-19T13:17:25.446Z,763.08
2022-12-19T13:20:03.112Z,768.55
2022-12-19T13:22:29.713Z,758.58
2022-12-19T13:24:58.856Z,743.28
2022-12-19T13:27:25.553Z,747.38
2022-12-19T13:30:01.199Z,744.33
2022-12-19T13:32:39.017Z,735.67
2022-12-19T13:38:45.899Z,744.00
2022-12-19T13:40:02.080Z,727.20
2022-12-19T13:41:46.840Z,743.13
2022-12-19T13:44:14.010Z,744.08
2022-12-19T13:46:45.634Z,739.65
2022-12-19T13:49:15.676Z,735.88
2022-12-19T13:51:50.349Z,741.90
2022-12-19T13:54:29.157Z,739.85
2022-12-19T13:57:00.197Z,750.67
2022-12-19T13:59:36.847Z,735.65
2022-12-19T14:02:32.393Z,739.80
2022-12-19T14:05:02.111Z,749.10
2022-12-19T14:07:37.485Z,762.70
2022-12-19T14:11:34.077Z,747.13
2022-12-19T14:13:44.596Z,744.72
2022-12-19T14:16:03.347Z,738.63
2022-12-19T14:18:44.253Z,742.47
2022-12-19T14:22:07.278Z,737.65
2022-12-19T14:24:19.368Z,741.10
2022-12-19T14:28:20.040Z,731.05
2022-12-19T14:30:26.375Z,728.53
2022-12-19T14:33:53.581Z,713.27
2022-12-19T14:36:08.662Z,715.40
2022-12-19T14:39:19.620Z,710.85
2022-12-19T14:41:48.170Z,722.53
2022-12-19T14:52:51.900Z,721.35
2022-12-19T14:54:13.637Z,699.40
2022-12-19T14:54:14.693Z,702.90
2022-12-19T14:54:29.348Z,699.83
2022-12-19T14:56:12.548Z,702.17
2022-12-19T14:58:55.357Z,680.70
2022-12-19T15:01:27.199Z,673.05
2022-12-19T15:04:53.199Z,676.78
2022-12-19T15:07:07.122Z,675.65
2022-12-19T15:11:08.942Z,668.20
2022-12-19T15:14:50.608Z,643.88
2022-12-19T15:16:23.018Z,667.15
2022-12-19T15:18:51.464Z,637.57
2022-12-19T15:21:18.121Z,628.85
2022-12-19T15:23:45.735Z,640.70
2022-12-19T15:26:15.172Z,636.47
2022-12-19T15:28:53.179Z,624.53
2022-12-19T15:31:35.964Z,629.43
2022-12-19T15:37:00.819Z,635.23
2022-12-19T15:39:30.097Z,621.07
2022-12-19T15:41:59.060Z,604.67
2022-12-19T15:47:03.640Z,613.20
2022-12-19T15:49:31.595Z,612.80
2022-12-19T15:51:58.460Z,635.78
2022-12-19T15:57:34.113Z,615.95
2022-12-19T16:00:04.118Z,620.85
2022-12-19T16:03:04.587Z,628.05
2022-12-19T16:05:20.813Z,619.60
2022-12-19T16:07:48.358Z,626.80
2022-12-19T16:10:15.804Z,619.20
2022-12-19T16:12:51.359Z,610.73
2022-12-19T16:15:29.485Z,607.75
2022-12-19T16:17:57.326Z,624.80
2022-12-19T16:20:29.274Z,607.85
2022-12-19T16:22:56.289Z,615.87
2022-12-19T16:25:37.356Z,615.85
2022-12-19T16:28:06.328Z,616.40
2022-12-19T16:30:34.345Z,611.70
2022-12-19T16:33:01.611Z,612.55
2022-12-19T16:36:02.318Z,613.30
2022-12-19T16:40:44.467Z,612.40
2022-12-19T16:45:45.884Z,606.70
2022-12-19T16:48:21.427Z,597.25
2022-12-19T16:50:48.468Z,598.40
2022-12-19T16:53:15.274Z,603.40
2022-12-19T16:55:42.676Z,594.08
2022-12-19T16:58:24.980Z,584.90
2022-12-19T17:00:54.953Z,598.37
2022-12-19T17:03:31.747Z,600.90
2022-12-19T17:05:58.615Z,601.10
2022-12-19T17:10:53.727Z,600.50
2022-12-19T17:15:56.071Z,595.30
2022-12-19T17:18:29.154Z,587.40
2022-12-19T17:20:56.055Z,587.80
2022-12-19T17:25:51.335Z,583.40
2022-12-19T17:28:18.214Z,588.00
2022-12-19T17:33:20.041Z,572.90
2022-12-19T17:35:47.560Z,584.80
2022-12-19T17:38:16.776Z,585.20
2022-12-19T17:40:44.957Z,592.45
2022-12-19T17:43:12.856Z,588.55
2022-12-19T17:48:23.315Z,588.50
2022-12-19T18:00:38.420Z,579.70
2022-12-19T18:03:19.384Z,584.90
2022-12-19T18:08:32.036Z,590.10
2022-12-19T18:16:01.051Z,577.80
2022-12-19T18:18:34.589Z,583.90
2022-12-19T18:21:02.217Z,586.75
2022-12-19T18:28:29.747Z,583.10
2022-12-19T18:33:46.343Z,581.30
2022-12-19T18:38:43.406Z,591.90
2022-12-19T18:41:11.824Z,587.10
2022-12-19T18:43:38.680Z,585.20
2022-12-19T18:46:06.216Z,584.45
2022-12-19T18:53:35.954Z,599.45
2022-12-19T18:56:04.508Z,584.90
2022-12-19T18:58:31.599Z,582.50
2022-12-19T19:01:00.277Z,584.40
2022-12-19T19:03:32.917Z,586.00
2022-12-19T19:06:00.172Z,587.70
2022-12-19T19:10:58.270Z,577.10
2022-12-19T19:15:58.965Z,572.63
2022-12-19T19:18:40.670Z,575.75
2022-12-19T19:21:10.355Z,579.40
2022-12-19T19:23:43.109Z,577.53
2022-12-19T19:26:09.784Z,577.05
2022-12-19T19:28:38.813Z,577.00
2022-12-19T19:31:08.901Z,576.15
2022-12-19T19:33:40.729Z,578.25
2022-12-19T19:36:12.587Z,579.20
2022-12-19T19:41:08.951Z,577.85
2022-12-19T19:46:02.809Z,570.53
2022-12-19T19:48:29.848Z,568.90
2022-12-19T19:50:56.929Z,589.10
2022-12-19T19:53:23.767Z,571.10
2022-12-19T19:56:01.158Z,576.20
2022-12-19T19:58:29.110Z,570.40
2022-12-19T20:05:58.115Z,565.57
2022-12-19T20:08:24.852Z,529.17
2022-12-19T20:10:56.239Z,480.33
2022-12-19T20:13:22.995Z,492.52
2022-12-19T20:15:50.298Z,468.42
2022-12-19T20:18:17.473Z,370.35
2022-12-19T20:20:44.177Z,247.05
